createdAt,value
2017-03-30T00:00:03.328Z,99.99
2017-03-30T00:05:03.004Z,99.99
2017-03-30T00:10:02.771Z,99.99
2017-03-30T00:15:03.486Z,99.99
2017-03-30T00:20:03.197Z,99.99
2017-03-30T00:25:02.876Z,99.99
2017-03-30T00:30:03.565Z,99.99
2017-03-30T00:35:03.284Z,99.99
2017-03-30T00:40:03.012Z,99.99
2017-03-30T00:45:03.701Z,99.99
2017-03-30T00:50:03.361Z,99.99
2017-03-30T00:55:03.100Z,99.99
2017-03-30T01:00:02.789Z,99.99
2017-03-30T01:05:03.585Z,99.99
2017-03-30T01:10:03.384Z,99.99
2017-03-30T01:15:03.114Z,99.99
2017-03-30T01:20:02.870Z,99.99
2017-03-30T01:25:03.599Z,99.99
2017-03-30T01:30:03.368Z,99.99
2017-03-30T01:35:02.997Z,99.99
2017-03-30T01:40:02.764Z,99.99
2017-03-30T01:45:03.519Z,99.99
2017-03-30T01:50:03.152Z,99.99
2017-03-30T01:55:02.748Z,99.99
2017-03-30T02:00:03.489Z,99.99
2017-03-30T02:05:03.074Z,99.99
2017-03-30T02:10:03.472Z,99.99
2017-03-30T02:15:03.230Z,99.99
2017-03-30T02:20:02.833Z,99.99
2017-03-30T02:25:03.610Z,99.99
2017-03-30T02:30:03.469Z,99.99
2017-03-30T02:35:03.116Z,99.99
2017-03-30T02:40:02.853Z,99.99
2017-03-30T02:45:03.717Z,99.99
2017-03-30T02:50:03.295Z,99.99
2017-03-30T02:55:02.860Z,99.99
2017-03-30T03:00:03.518Z,99.99
2017-03-30T03:05:03.321Z,99.99
2017-03-30T03:10:03.008Z,99.99
2017-03-30T03:15:02.752Z,99.99
2017-03-30T03:20:03.331Z,99.99
2017-03-30T03:25:03.086Z,99.99
2017-03-30T03:30:02.856Z,99.99
2017-03-30T03:35:03.434Z,99.99
2017-03-30T03:40:03.176Z,99.99
2017-03-30T03:45:02.839Z,99.99
2017-03-30T03:50:03.425Z,99.99
2017-03-30T03:55:03.032Z,99.99
2017-03-30T04:00:02.809Z,99.99
2017-03-30T04:05:03.648Z,99.99
2017-03-30T04:10:03.511Z,99.99
2017-03-30T04:15:03.297Z,99.99
2017-03-30T04:20:02.993Z,99.99
2017-03-30T04:25:03.570Z,99.99
2017-03-30T04:30:02.948Z,99.99
2017-03-30T04:35:02.738Z,99.99
2017-03-30T04:40:03.393Z,99.99
2017-03-30T04:45:03.076Z,99.99
2017-03-30T04:50:03.693Z,99.99
2017-03-30T04:55:03.409Z,99.99
2017-03-30T05:00:03.162Z,99.99
2017-03-30T05:05:02.795Z,99.99
2017-03-30T05:10:03.451Z,99.99
2017-03-30T05:15:03.110Z,99.99
2017-03-30T05:20:03.697Z,99.99
2017-03-30T05:25:03.340Z,99.99
2017-03-30T05:30:03.087Z,99.99
2017-03-30T05:35:02.844Z,99.99
2017-03-30T05:40:03.591Z,99.99
2017-03-30T05:45:03.198Z,99.99
2017-03-30T05:50:02.947Z,99.99
2017-03-30T05:55:03.585Z,99.99
2017-03-30T06:00:03.192Z,99.99
2017-03-30T06:05:02.792Z,99.99
2017-03-30T06:10:03.560Z,99.99
2017-03-30T06:15:03.323Z,99.99
2017-03-30T06:20:03.021Z,99.99
2017-03-30T06:25:02.751Z,99.99
2017-03-30T06:30:03.531Z,99.99
2017-03-30T06:35:03.200Z,99.99
2017-03-30T06:40:02.755Z,99.99
2017-03-30T06:45:03.394Z,99.99
2017-03-30T06:50:03.115Z,99.99
2017-03-30T06:55:02.731Z,99.99
2017-03-30T07:00:03.492Z,99.99
2017-03-30T07:05:03.185Z,99.99
2017-03-30T07:10:02.863Z,99.99
2017-03-30T07:15:03.499Z,99.99
2017-03-30T07:20:03.101Z,99.99
2017-03-30T07:25:03.710Z,99.99
2017-03-30T07:30:03.380Z,99.99
2017-03-30T07:35:02.913Z,99.99
2017-03-30T07:40:03.573Z,99.99
2017-03-30T07:45:03.368Z,99.99
2017-03-30T07:50:03.005Z,99.99
2017-03-30T07:55:03.631Z,99.99
2017-03-30T08:00:03.337Z,99.99
2017-03-30T08:05:03.066Z,99.99
2017-03-30T08:10:02.868Z,99.99
2017-03-30T08:15:03.494Z,99.99
2017-03-30T08:20:03.153Z,99.99
2017-03-30T08:25:03.714Z,99.99
2017-03-30T08:30:03.516Z,99.99
2017-03-30T08:35:03.259Z,99.99
2017-03-30T08:40:02.853Z,99.99
2017-03-30T08:45:03.555Z,99.99
2017-03-30T08:50:03.193Z,99.99
2017-03-30T08:55:02.863Z,99.99
2017-03-30T09:00:03.556Z,99.99
2017-03-30T09:05:03.138Z,99.35
2017-03-30T09:10:02.853Z,98.49
2017-03-30T09:15:03.651Z,96.47
2017-03-30T09:20:03.458Z,93.43
2017-03-30T09:25:03.013Z,90.69
2017-03-30T09:30:02.900Z,91.46
2017-03-30T09:35:03.549Z,88.62
2017-03-30T09:40:03.328Z,89.15
2017-03-30T09:45:02.932Z,84.95
2017-03-30T09:50:03.589Z,84.03
2017-03-30T09:55:03.349Z,82.14
2017-03-30T10:00:03.021Z,79.64
2017-03-30T10:05:03.742Z,77.94
2017-03-30T10:10:03.596Z,77.36
2017-03-30T10:15:03.461Z,75.85
2017-03-30T10:20:03.209Z,73.93
2017-03-30T10:25:02.988Z,74.73
2017-03-30T10:30:03.821Z,72.61
2017-03-30T10:35:03.649Z,71.88
2017-03-30T10:40:03.360Z,72.74
2017-03-30T10:45:02.986Z,71.74
2017-03-30T10:50:02.808Z,74.66
2017-03-30T10:55:03.538Z,74.79
2017-03-30T11:00:03.211Z,73.52
2017-03-30T11:05:02.805Z,70.94
2017-03-30T11:10:03.588Z,69.14
2017-03-30T11:15:03.282Z,68.88
2017-03-30T11:20:03.016Z,68.21
2017-03-30T11:25:03.626Z,67.43
2017-03-30T11:30:03.382Z,67.82
2017-03-30T11:35:03.152Z,68.37
2017-03-30T11:40:02.837Z,68.21
2017-03-30T11:45:03.496Z,67.72
2017-03-30T11:50:03.191Z,68.11
2017-03-30T11:55:02.889Z,67.27
2017-03-30T12:00:03.453Z,67.27
2017-03-30T12:05:03.206Z,65.92
2017-03-30T12:10:02.849Z,65.53
2017-03-30T12:15:03.709Z,66.05
2017-03-30T12:20:03.311Z,65.3
2017-03-30T12:25:04.907Z,64.04
2017-03-30T12:30:03.608Z,63.62
2017-03-30T12:35:03.194Z,63.49
2017-03-30T12:40:03.009Z,65.4
2017-03-30T12:45:03.640Z,64.92
2017-03-30T12:50:03.404Z,64.47
2017-03-30T12:55:03.088Z,63.43
2017-03-30T13:00:03.666Z,63.31
2017-03-30T13:05:03.386Z,63.53
2017-03-30T13:10:03.131Z,62.17
2017-03-30T13:15:02.726Z,64.3
2017-03-30T13:20:03.354Z,63.46
2017-03-30T13:25:02.995Z,62.23
2017-03-30T13:30:03.636Z,61.68
2017-03-30T13:35:03.217Z,60.23
2017-03-30T13:40:02.901Z,60.2
2017-03-30T13:45:03.550Z,61.21
2017-03-30T13:50:03.294Z,62.4
2017-03-30T13:55:02.968Z,61.72
2017-03-30T14:00:03.535Z,61.94
2017-03-30T14:05:03.164Z,60.68
2017-03-30T14:10:02.956Z,62.4
2017-03-30T14:15:02.728Z,60.52
2017-03-30T14:20:03.417Z,60.88
2017-03-30T14:25:03.111Z,61.11
2017-03-30T14:30:02.974Z,62.85
2017-03-30T14:35:02.689Z,61.43
2017-03-30T14:40:03.350Z,61.4
2017-03-30T14:45:02.990Z,62.04
2017-03-30T14:50:03.633Z,62.04
2017-03-30T14:55:03.396Z,62.59
2017-03-30T15:00:03.005Z,62.69
2017-03-30T15:05:03.671Z,62.95
2017-03-30T15:10:03.424Z,64.08
2017-03-30T15:15:03.197Z,64.5
2017-03-30T15:20:02.876Z,64.76
2017-03-30T15:25:03.726Z,64.85
2017-03-30T15:30:03.529Z,64.34
2017-03-30T15:35:03.142Z,65.2
2017-03-30T15:40:03.037Z,65.56
2017-03-30T15:45:02.752Z,65.63
2017-03-30T15:50:03.468Z,66.78
2017-03-30T15:55:03.175Z,67.07
2017-03-30T16:00:02.832Z,67.36
2017-03-30T16:05:03.509Z,67.65
2017-03-30T16:10:03.328Z,67.46
2017-03-30T16:15:03.030Z,66.97
2017-03-30T16:20:02.789Z,67.55
2017-03-30T16:25:03.437Z,68.13
2017-03-30T16:30:03.331Z,68.23
2017-03-30T16:35:02.960Z,68.52
2017-03-30T16:40:03.685Z,68.68
2017-03-30T16:45:03.374Z,68.87
2017-03-30T16:50:03.075Z,69.03
2017-03-30T16:55:02.738Z,69.03
2017-03-30T17:00:03.472Z,69.9
2017-03-30T17:05:03.379Z,70.44
2017-03-30T17:10:03.204Z,71.22
2017-03-30T17:15:02.989Z,71.66
2017-03-30T17:20:02.768Z,72.43
2017-03-30T17:25:03.444Z,72.43
2017-03-30T17:30:03.363Z,72.88
2017-03-30T17:35:03.122Z,73.26
2017-03-30T17:40:02.810Z,73.07
2017-03-30T17:45:03.632Z,73.46
2017-03-30T17:50:03.317Z,73.99
2017-03-30T17:55:03.232Z,75.05
2017-03-30T18:00:02.903Z,75.11
2017-03-30T18:05:03.707Z,75.4
2017-03-30T18:10:03.243Z,75.69
2017-03-30T18:15:02.828Z,76.32
2017-03-30T18:20:03.570Z,76.61
2017-03-30T18:25:03.350Z,76.9
2017-03-30T18:30:03.178Z,77.58
2017-03-30T18:35:02.883Z,78.02
2017-03-30T18:40:03.617Z,78.69
2017-03-30T18:45:03.210Z,79.17
2017-03-30T18:50:02.883Z,79.61
2017-03-30T18:55:03.486Z,80.28
2017-03-30T19:00:03.251Z,81.97
2017-03-30T19:05:03.015Z,82.54
2017-03-30T19:10:03.682Z,83.8
2017-03-30T19:15:03.422Z,84.42
2017-03-30T19:20:03.063Z,85.38
2017-03-30T19:25:02.909Z,86.25
2017-03-30T19:30:03.532Z,86.88
2017-03-30T19:35:03.260Z,87.64
2017-03-30T19:40:03.043Z,88.51
2017-03-30T19:45:02.821Z,89.9
2017-03-30T19:50:03.567Z,90.76
2017-03-30T19:55:03.124Z,92.3
2017-03-30T20:00:02.921Z,93.35
2017-03-30T20:05:03.645Z,94.64
2017-03-30T20:10:03.439Z,95.22
2017-03-30T20:15:03.206Z,96.08
2017-03-30T20:20:02.871Z,96.75
2017-03-30T20:25:03.617Z,97.52
2017-03-30T20:30:03.382Z,98.43
2017-03-30T20:35:03.137Z,99.19
2017-03-30T20:40:02.947Z,99.77
2017-03-30T20:45:02.801Z,99.99
2017-03-30T20:50:03.507Z,99.99
2017-03-30T20:55:03.300Z,99.99
2017-03-30T21:00:02.987Z,99.99
2017-03-30T21:05:02.794Z,99.99
2017-03-30T21:10:03.668Z,99.99
2017-03-30T21:15:03.283Z,99.99
2017-03-30T21:20:03.033Z,99.99
2017-03-30T21:25:02.807Z,99.99
2017-03-30T21:30:03.498Z,99.99
2017-03-30T21:35:03.371Z,99.99
2017-03-30T21:40:03.114Z,99.99
2017-03-30T21:45:02.905Z,99.99
2017-03-30T21:50:03.529Z,99.99
2017-03-30T21:55:03.197Z,99.99
2017-03-30T22:00:02.881Z,99.99
2017-03-30T22:05:03.641Z,99.99
2017-03-30T22:10:03.488Z,99.99
2017-03-30T22:15:03.168Z,99.99
2017-03-30T22:20:02.927Z,99.99
2017-03-30T22:25:03.529Z,99.99
2017-03-30T22:30:03.168Z,99.99
2017-03-30T22:35:02.840Z,99.99
2017-03-30T22:40:03.494Z,99.99
2017-03-30T22:45:03.303Z,99.99
2017-03-30T22:50:02.882Z,99.99
2017-03-30T22:55:03.490Z,99.99
2017-03-30T23:00:03.170Z,99.99
2017-03-30T23:05:03.739Z,99.99
2017-03-30T23:10:03.493Z,99.99
2017-03-30T23:15:03.242Z,99.99
2017-03-30T23:20:02.959Z,99.99
2017-03-30T23:25:03.601Z,99.99
2017-03-30T23:30:03.255Z,99.99
2017-03-30T23:35:03.228Z,99.99
2017-03-30T23:40:02.967Z,99.99
2017-03-30T23:45:03.727Z,99.99
2017-03-30T23:50:03.426Z,99.99
2017-03-30T23:55:03.072Z,99.99
